createdAt,value
2019-04-25T00:00:02.011Z,8.20
2019-04-25T00:02:43.739Z,8.30
2019-04-25T00:05:16.619Z,8.20
2019-04-25T00:07:47.202Z,8.10
2019-04-25T00:10:17.745Z,8.10
2019-04-25T00:12:49.290Z,8.00
2019-04-25T00:15:19.831Z,8.00
2019-04-25T00:17:52.205Z,7.90
2019-04-25T00:20:23.182Z,7.70
2019-04-25T00:23:03.379Z,7.60
2019-04-25T00:26:11.690Z,7.60
2019-04-25T00:28:44.342Z,7.50
2019-04-25T00:31:15.277Z,7.50
2019-04-25T00:33:46.050Z,7.50
2019-04-25T00:36:16.623Z,7.40
2019-04-25T00:38:48.300Z,7.40
2019-04-25T00:41:19.433Z,7.30
2019-04-25T00:43:51.704Z,7.30
2019-04-25T00:46:22.588Z,7.30
2019-04-25T00:48:53.272Z,7.30
2019-04-25T00:51:23.761Z,7.30
2019-04-25T00:53:54.831Z,7.30
2019-04-25T00:56:25.522Z,7.40
2019-04-25T00:59:05.344Z,7.50
2019-04-25T01:02:01.457Z,7.60
2019-04-25T01:04:34.301Z,7.60
2019-04-25T01:07:05.281Z,7.60
2019-04-25T01:09:35.967Z,7.60
2019-04-25T01:12:06.967Z,7.70
2019-04-25T01:14:37.511Z,7.70
2019-04-25T01:17:08.176Z,7.60
2019-04-25T01:19:38.637Z,7.60
2019-04-25T01:22:09.519Z,7.60
2019-04-25T01:24:40.139Z,7.60
2019-04-25T01:27:10.703Z,7.50
2019-04-25T01:29:41.260Z,7.50
2019-04-25T01:32:15.078Z,7.40
2019-04-25T01:35:04.496Z,7.40
2019-04-25T01:37:41.832Z,7.40
2019-04-25T01:40:35.374Z,7.40
2019-04-25T01:43:24.869Z,7.30
2019-04-25T01:45:56.404Z,7.30
2019-04-25T01:48:27.034Z,7.30
2019-04-25T01:50:58.515Z,7.20
2019-04-25T01:53:29.185Z,7.30
2019-04-25T01:56:04.045Z,7.30
2019-04-25T01:58:33.793Z,7.20
2019-04-25T02:01:04.657Z,7.30
2019-04-25T02:03:35.630Z,7.30
2019-04-25T02:06:06.325Z,7.20
2019-04-25T02:08:36.913Z,7.20
2019-04-25T02:11:28.377Z,7.20
2019-04-25T02:13:59.045Z,7.20
2019-04-25T02:16:29.866Z,7.10
2019-04-25T02:19:00.651Z,7.00
2019-04-25T02:21:33.503Z,7.00
2019-04-25T02:24:05.613Z,7.00
2019-04-25T02:26:36.745Z,6.80
2019-04-25T02:29:07.354Z,6.90
2019-04-25T02:31:37.960Z,7.00
2019-04-25T02:34:08.860Z,6.90
2019-04-25T02:36:39.616Z,6.90
2019-04-25T02:39:18.125Z,6.80
2019-04-25T02:41:48.658Z,6.80
2019-04-25T02:44:19.304Z,6.80
2019-04-25T02:47:08.793Z,6.70
2019-04-25T02:49:47.576Z,6.70
2019-04-25T02:52:29.223Z,6.60
2019-04-25T02:55:00.443Z,6.60
2019-04-25T02:57:34.411Z,6.60
2019-04-25T03:00:08.674Z,6.70
2019-04-25T03:02:39.393Z,7.00
2019-04-25T03:05:10.190Z,7.10
2019-04-25T03:07:40.732Z,7.20
2019-04-25T03:10:14.881Z,7.20
2019-04-25T03:12:45.553Z,7.20
2019-04-25T03:15:16.105Z,7.20
2019-04-25T03:17:46.648Z,7.20
2019-04-25T03:20:38.764Z,7.20
2019-04-25T03:23:15.383Z,7.10
2019-04-25T03:25:45.933Z,7.10
2019-04-25T03:28:16.529Z,7.00
2019-04-25T03:30:47.409Z,7.00
2019-04-25T03:33:19.587Z,6.90
2019-04-25T03:35:50.976Z,6.90
2019-04-25T03:38:21.625Z,6.90
2019-04-25T03:40:53.525Z,6.80
2019-04-25T03:43:24.614Z,6.80
2019-04-25T03:45:55.118Z,6.70
2019-04-25T03:48:25.763Z,6.70
2019-04-25T03:50:56.351Z,6.80
2019-04-25T03:53:26.920Z,6.70
2019-04-25T03:55:57.490Z,6.50
2019-04-25T03:58:28.071Z,6.40
2019-04-25T04:00:58.629Z,6.30
2019-04-25T04:03:29.163Z,6.30
2019-04-25T04:05:59.749Z,6.20
2019-04-25T04:08:30.409Z,6.20
2019-04-25T04:11:01.011Z,6.20
2019-04-25T04:13:31.659Z,6.20
2019-04-25T04:16:03.394Z,6.20
2019-04-25T04:18:38.499Z,6.20
2019-04-25T04:21:26.951Z,6.20
2019-04-25T04:24:07.881Z,6.20
2019-04-25T04:26:38.534Z,6.30
2019-04-25T04:29:09.078Z,6.40
2019-04-25T04:31:40.651Z,6.50
2019-04-25T04:34:11.251Z,6.50
2019-04-25T04:36:41.730Z,6.50
2019-04-25T04:39:14.200Z,6.50
2019-04-25T04:41:44.591Z,6.40
2019-04-25T04:44:15.627Z,6.40
2019-04-25T04:46:47.025Z,6.40
2019-04-25T04:49:18.478Z,6.40
2019-04-25T04:51:49.093Z,6.40
2019-04-25T04:54:21.035Z,6.40
2019-04-25T04:56:51.659Z,6.50
2019-04-25T04:59:24.678Z,6.50
2019-04-25T05:02:14.625Z,6.50
2019-04-25T05:04:57.290Z,6.70
2019-04-25T05:07:58.829Z,6.80
2019-04-25T05:10:29.480Z,6.90
2019-04-25T05:13:00.028Z,6.90
2019-04-25T05:15:30.609Z,6.90
2019-04-25T05:18:01.270Z,7.00
2019-04-25T05:20:31.923Z,7.00
2019-04-25T05:23:03.190Z,7.00
2019-04-25T05:25:34.538Z,7.10
2019-04-25T05:28:05.445Z,7.20
2019-04-25T05:30:43.632Z,7.30
2019-04-25T05:33:17.578Z,7.40
2019-04-25T05:35:46.520Z,7.50
2019-04-25T05:38:17.669Z,7.50
2019-04-25T05:41:02.061Z,7.50
2019-04-25T05:43:33.410Z,7.60
2019-04-25T05:46:04.248Z,7.70
2019-04-25T05:48:34.802Z,7.70
2019-04-25T05:51:05.376Z,7.80
2019-04-25T05:53:36.273Z,7.80
2019-04-25T05:56:06.834Z,7.90
2019-04-25T05:58:37.510Z,7.90
2019-04-25T06:01:08.118Z,8.20
2019-04-25T06:03:38.588Z,8.40
2019-04-25T06:06:09.174Z,8.60
2019-04-25T06:08:44.957Z,8.80
2019-04-25T06:11:37.511Z,9.00
2019-04-25T06:14:10.295Z,9.20
2019-04-25T06:16:41.660Z,9.30
2019-04-25T06:19:38.571Z,9.50
2019-04-25T06:22:15.162Z,9.60
2019-04-25T06:24:54.261Z,9.80
2019-04-25T06:27:56.564Z,10.00
2019-04-25T06:30:29.503Z,10.00
2019-04-25T06:33:00.553Z,10.20
2019-04-25T06:35:31.530Z,10.30
2019-04-25T06:38:03.540Z,10.40
2019-04-25T06:40:34.601Z,10.40
2019-04-25T06:43:05.290Z,10.50
2019-04-25T06:45:57.555Z,10.60
2019-04-25T06:48:35.514Z,10.70
2019-04-25T06:51:06.082Z,10.80
2019-04-25T06:53:36.756Z,10.90
2019-04-25T06:56:07.696Z,11.00
2019-04-25T06:58:38.462Z,11.10
2019-04-25T07:01:09.014Z,11.20
2019-04-25T07:03:39.690Z,11.30
2019-04-25T07:06:10.336Z,11.30
2019-04-25T07:08:40.872Z,11.40
2019-04-25T07:11:11.801Z,11.50
2019-04-25T07:13:43.868Z,11.70
2019-04-25T07:16:14.890Z,11.90
2019-04-25T07:18:45.643Z,12.00
2019-04-25T07:21:16.212Z,12.20
2019-04-25T07:23:46.809Z,12.20
2019-04-25T07:26:26.917Z,12.40
2019-04-25T07:29:26.022Z,12.60
2019-04-25T07:32:17.038Z,12.70
2019-04-25T07:34:47.740Z,12.90
2019-04-25T07:37:18.410Z,13.00
2019-04-25T07:39:49.133Z,13.10
2019-04-25T07:42:19.843Z,13.20
2019-04-25T07:44:52.985Z,13.30
2019-04-25T07:47:24.256Z,13.40
2019-04-25T07:49:55.052Z,13.60
2019-04-25T07:52:26.967Z,13.80
2019-04-25T07:54:58.078Z,13.60
2019-04-25T07:57:29.144Z,13.70
2019-04-25T07:59:59.800Z,13.90
2019-04-25T08:02:30.354Z,14.20
2019-04-25T08:05:04.589Z,14.30
2019-04-25T08:07:36.248Z,14.50
2019-04-25T08:10:07.933Z,14.60
2019-04-25T08:12:39.416Z,14.70
2019-04-25T08:15:29.974Z,14.70
2019-04-25T08:18:04.042Z,14.80
2019-04-25T08:20:35.919Z,14.90
2019-04-25T08:23:07.459Z,15.30
2019-04-25T08:25:39.661Z,15.50
2019-04-25T08:28:10.664Z,15.60
2019-04-25T08:30:41.790Z,15.80
2019-04-25T08:33:13.910Z,15.90
2019-04-25T08:36:03.515Z,16.00
2019-04-25T08:38:16.972Z,16.10
2019-04-25T08:40:47.878Z,16.40
2019-04-25T08:43:18.341Z,16.60
2019-04-25T08:45:48.947Z,16.70
2019-04-25T08:48:20.248Z,16.80
2019-04-25T08:51:03.573Z,17.00
2019-04-25T08:53:53.772Z,17.20
2019-04-25T08:56:28.543Z,17.50
2019-04-25T08:59:34.145Z,17.80
2019-04-25T09:02:15.201Z,17.90
2019-04-25T09:05:04.108Z,17.80
2019-04-25T09:07:35.514Z,17.60
2019-04-25T09:10:07.967Z,17.60
2019-04-25T09:12:38.539Z,17.70
2019-04-25T09:15:09.192Z,18.00
2019-04-25T09:17:39.770Z,18.30
2019-04-25T09:20:10.867Z,18.60
2019-04-25T09:22:42.024Z,18.80
2019-04-25T09:25:13.797Z,18.90
2019-04-25T09:27:45.793Z,19.00
2019-04-25T09:30:17.210Z,18.90
2019-04-25T09:32:48.036Z,18.80
2019-04-25T09:35:20.168Z,19.20
2019-04-25T09:37:50.979Z,19.40
2019-04-25T09:40:21.722Z,19.50
2019-04-25T09:42:53.674Z,19.50
2019-04-25T09:45:46.379Z,19.60
2019-04-25T09:48:42.377Z,19.40
2019-04-25T09:51:19.014Z,19.50
2019-04-25T09:53:51.842Z,19.40
2019-04-25T09:56:30.385Z,19.70
2019-04-25T09:59:13.809Z,20.00
2019-04-25T10:01:48.251Z,20.10
2019-04-25T10:04:19.050Z,20.10
2019-04-25T10:06:49.823Z,20.30
2019-04-25T10:09:21.075Z,20.50
2019-04-25T10:11:52.032Z,20.70
2019-04-25T10:15:09.589Z,20.80
2019-04-25T10:17:40.981Z,21.00
2019-04-25T10:20:14.478Z,20.60
2019-04-25T10:22:45.424Z,20.20
2019-04-25T10:25:17.720Z,20.50
2019-04-25T10:27:49.353Z,20.80
2019-04-25T10:30:23.509Z,21.10
2019-04-25T10:32:54.383Z,21.20
2019-04-25T10:35:25.320Z,21.20
2019-04-25T10:37:55.984Z,21.00
2019-04-25T10:40:28.100Z,21.40
2019-04-25T10:42:58.690Z,21.80
2019-04-25T10:45:29.386Z,21.90
2019-04-25T10:48:00.012Z,22.00
2019-04-25T10:50:30.480Z,21.80
2019-04-25T10:53:01.537Z,22.00
2019-04-25T10:55:32.518Z,21.80
2019-04-25T10:58:03.940Z,21.90
2019-04-25T11:00:40.775Z,22.10
2019-04-25T11:03:30.661Z,21.90
2019-04-25T11:06:01.262Z,21.90
2019-04-25T11:08:31.813Z,22.40
2019-04-25T11:11:03.750Z,22.70
2019-04-25T11:13:35.409Z,23.00
2019-04-25T11:16:07.804Z,23.10
2019-04-25T11:18:38.337Z,22.90
2019-04-25T11:21:09.197Z,23.10
2019-04-25T11:23:40.522Z,23.40
2019-04-25T11:26:13.730Z,23.70
2019-04-25T11:28:45.331Z,23.80
2019-04-25T11:31:28.006Z,23.80
2019-04-25T11:33:58.554Z,24.40
2019-04-25T11:36:29.167Z,24.60
2019-04-25T11:39:30.803Z,24.90
2019-04-25T11:42:02.760Z,24.10
2019-04-25T11:44:35.005Z,23.90
2019-04-25T11:47:07.189Z,24.50
2019-04-25T11:49:37.991Z,24.80
2019-04-25T11:52:10.189Z,25.30
2019-04-25T11:54:40.880Z,25.30
2019-04-25T11:57:11.521Z,26.00
2019-04-25T11:59:42.200Z,26.30
2019-04-25T12:02:14.322Z,25.80
2019-04-25T12:04:45.484Z,25.60
2019-04-25T12:07:17.156Z,25.50
2019-04-25T12:09:48.147Z,25.70
2019-04-25T12:12:18.746Z,25.70
2019-04-25T12:14:49.591Z,25.70
2019-04-25T12:17:20.476Z,26.20
2019-04-25T12:19:51.193Z,26.80
2019-04-25T12:22:21.837Z,26.70
2019-04-25T12:24:54.353Z,26.30
2019-04-25T12:27:25.093Z,25.60
2019-04-25T12:29:55.479Z,26.00
2019-04-25T12:32:25.911Z,26.00
2019-04-25T12:34:56.469Z,26.20
2019-04-25T12:37:27.045Z,26.30
2019-04-25T12:39:57.618Z,26.70
2019-04-25T12:42:28.596Z,25.90
2019-04-25T12:45:20.995Z,26.00
2019-04-25T12:47:51.536Z,26.70
2019-04-25T12:50:23.088Z,26.40
2019-04-25T12:52:55.037Z,26.90
2019-04-25T12:55:26.596Z,27.10
2019-04-25T12:57:58.143Z,26.90
2019-04-25T13:00:30.532Z,26.80
2019-04-25T13:03:01.558Z,26.80
2019-04-25T13:05:32.211Z,27.00
2019-04-25T13:08:04.727Z,26.80
2019-04-25T13:10:35.674Z,26.70
2019-04-25T13:13:06.676Z,26.40
2019-04-25T13:15:37.260Z,26.70
2019-04-25T13:18:07.790Z,26.60
2019-04-25T13:20:38.350Z,26.70
2019-04-25T13:23:09.447Z,27.20
2019-04-25T13:25:40.140Z,27.70
2019-04-25T13:28:20.753Z,27.40
2019-04-25T13:31:12.112Z,27.00
2019-04-25T13:34:01.519Z,27.30
2019-04-25T13:36:34.702Z,27.40
2019-04-25T13:39:09.565Z,26.80
2019-04-25T13:41:40.109Z,27.40
2019-04-25T13:44:10.701Z,27.70
2019-04-25T13:46:43.197Z,27.80
2019-04-25T13:49:15.288Z,26.70
2019-04-25T13:51:45.848Z,26.80
2019-04-25T13:54:16.712Z,26.90
2019-04-25T13:56:47.299Z,27.00
2019-04-25T13:59:17.866Z,27.00
2019-04-25T14:01:49.715Z,27.30
2019-04-25T14:04:20.372Z,27.10
2019-04-25T14:06:50.827Z,27.10
2019-04-25T14:09:24.871Z,27.30
2019-04-25T14:11:56.286Z,27.30
2019-04-25T14:14:26.873Z,26.90
2019-04-25T14:17:15.080Z,26.60
2019-04-25T14:19:58.972Z,26.70
2019-04-25T14:22:30.377Z,26.80
2019-04-25T14:25:01.143Z,27.40
2019-04-25T14:27:32.520Z,27.70
2019-04-25T14:30:04.286Z,27.90
2019-04-25T14:32:35.175Z,27.70
2019-04-25T14:35:06.534Z,27.20
2019-04-25T14:37:39.649Z,26.50
2019-04-25T14:40:10.707Z,26.40
2019-04-25T14:42:41.348Z,26.30
2019-04-25T14:45:12.357Z,26.40
2019-04-25T14:47:43.005Z,26.20
2019-04-25T14:50:13.530Z,26.10
2019-04-25T14:52:44.083Z,26.30
2019-04-25T14:55:33.796Z,26.40
2019-04-25T14:58:07.144Z,26.80
2019-04-25T15:00:41.999Z,26.50
2019-04-25T15:03:12.630Z,26.20
2019-04-25T15:05:43.615Z,25.50
2019-04-25T15:08:14.465Z,25.30
2019-04-25T15:10:45.087Z,25.70
2019-04-25T15:13:15.654Z,25.70
2019-04-25T15:15:46.588Z,25.60
2019-04-25T15:18:17.088Z,25.50
2019-04-25T15:20:47.748Z,25.70
2019-04-25T15:23:18.277Z,25.30
2019-04-25T15:25:48.888Z,25.60
2019-04-25T15:28:19.364Z,25.50
2019-04-25T15:30:50.070Z,25.30
2019-04-25T15:33:20.887Z,25.20
2019-04-25T15:35:59.997Z,25.30
2019-04-25T15:38:45.315Z,25.20
2019-04-25T15:41:23.990Z,25.00
2019-04-25T15:44:13.439Z,25.20
2019-04-25T15:46:44.914Z,24.90
2019-04-25T15:49:15.919Z,24.80
2019-04-25T15:51:46.425Z,24.90
2019-04-25T15:54:16.981Z,24.80
2019-04-25T15:56:47.519Z,24.80
2019-04-25T15:59:18.336Z,24.90
2019-04-25T16:01:48.872Z,24.90
2019-04-25T16:04:19.452Z,24.90
2019-04-25T16:06:49.937Z,24.80
2019-04-25T16:09:20.523Z,24.80
2019-04-25T16:11:50.979Z,24.90
2019-04-25T16:14:21.574Z,24.80
2019-04-25T16:16:52.030Z,24.70
2019-04-25T16:19:22.565Z,25.00
2019-04-25T16:21:53.038Z,25.30
2019-04-25T16:24:23.595Z,25.30
2019-04-25T16:26:54.067Z,24.80
2019-04-25T16:29:24.640Z,24.30
2019-04-25T16:31:56.162Z,24.20
2019-04-25T16:34:27.089Z,24.10
2019-04-25T16:36:57.630Z,24.10
2019-04-25T16:39:29.843Z,24.00
2019-04-25T16:42:00.473Z,23.80
2019-04-25T16:44:31.874Z,23.80
2019-04-25T16:47:02.670Z,23.70
2019-04-25T16:49:33.207Z,23.60
2019-04-25T16:52:05.339Z,23.50
2019-04-25T16:54:36.192Z,23.50
2019-04-25T16:57:06.744Z,23.50
2019-04-25T16:59:37.706Z,23.40
2019-04-25T17:02:08.523Z,23.40
2019-04-25T17:04:39.347Z,23.40
2019-04-25T17:07:10.096Z,23.30
2019-04-25T17:09:40.658Z,23.50
2019-04-25T17:12:11.817Z,23.90
2019-04-25T17:14:59.882Z,24.30
2019-04-25T17:17:41.822Z,25.00
2019-04-25T17:20:19.097Z,25.20
2019-04-25T17:22:49.648Z,24.50
2019-04-25T17:25:20.748Z,23.90
2019-04-25T17:27:51.290Z,23.60
2019-04-25T17:30:22.759Z,23.60
2019-04-25T17:33:18.220Z,23.40
2019-04-25T17:35:57.061Z,23.40
2019-04-25T17:38:35.448Z,23.20
2019-04-25T17:41:06.249Z,23.30
2019-04-25T17:43:37.111Z,23.20
2019-04-25T17:46:10.939Z,23.00
2019-04-25T17:48:41.560Z,22.90
2019-04-25T17:51:12.123Z,22.70
2019-04-25T17:53:43.296Z,22.60
2019-04-25T17:56:14.352Z,22.50
2019-04-25T17:58:45.200Z,22.40
2019-04-25T18:01:20.248Z,22.40
2019-04-25T18:03:50.722Z,22.30
2019-04-25T18:06:21.324Z,22.30
2019-04-25T18:08:51.811Z,22.20
2019-04-25T18:11:22.607Z,22.10
2019-04-25T18:13:53.089Z,22.10
2019-04-25T18:16:29.362Z,22.00
2019-04-25T18:19:13.277Z,21.90
2019-04-25T18:21:44.899Z,21.80
2019-04-25T18:24:41.220Z,21.70
2019-04-25T18:27:22.328Z,21.60
2019-04-25T18:29:53.261Z,21.50
2019-04-25T18:32:25.491Z,21.40
2019-04-25T18:35:10.405Z,21.30
2019-04-25T18:38:00.052Z,21.20
2019-04-25T18:40:36.607Z,21.20
2019-04-25T18:43:25.750Z,21.20
2019-04-25T18:46:01.607Z,21.10
2019-04-25T18:48:32.743Z,20.90
2019-04-25T18:51:03.292Z,20.90
2019-04-25T18:53:52.149Z,20.80
2019-04-25T18:56:33.142Z,20.80
2019-04-25T18:59:19.391Z,20.70
2019-04-25T19:02:21.411Z,20.50
2019-04-25T19:05:10.192Z,20.40
2019-04-25T19:07:40.982Z,20.20
2019-04-25T19:10:12.466Z,20.10
2019-04-25T19:12:43.321Z,20.00
2019-04-25T19:15:14.438Z,20.10
2019-04-25T19:17:45.786Z,20.00
2019-04-25T19:20:16.703Z,20.00
2019-04-25T19:22:48.248Z,20.00
2019-04-25T19:25:19.086Z,19.90
2019-04-25T19:27:49.740Z,19.80
2019-04-25T19:30:20.923Z,19.60
2019-04-25T19:32:51.960Z,19.50
2019-04-25T19:35:22.610Z,19.30
2019-04-25T19:37:55.250Z,19.10
2019-04-25T19:40:48.875Z,19.00
2019-04-25T19:43:37.831Z,18.90
2019-04-25T19:46:08.559Z,18.70
2019-04-25T19:48:39.049Z,18.60
2019-04-25T19:51:09.715Z,18.50
2019-04-25T19:53:40.708Z,18.50
2019-04-25T19:56:12.771Z,18.40
2019-04-25T19:58:43.892Z,18.50
2019-04-25T20:01:14.682Z,18.50
2019-04-25T20:03:55.462Z,18.50
2019-04-25T20:06:47.454Z,18.50
2019-04-25T20:09:40.257Z,18.60
2019-04-25T20:12:11.185Z,18.50
2019-04-25T20:14:43.929Z,18.10
2019-04-25T20:17:14.461Z,17.40
2019-04-25T20:19:45.933Z,17.10
2019-04-25T20:22:16.664Z,16.70
2019-04-25T20:24:48.280Z,16.40
2019-04-25T20:27:19.658Z,16.20
2019-04-25T20:29:50.513Z,16.10
2019-04-25T20:32:21.566Z,15.80
2019-04-25T20:34:53.163Z,15.60
2019-04-25T20:37:24.096Z,15.30
2019-04-25T20:39:54.648Z,15.10
2019-04-25T20:42:25.455Z,15.00
2019-04-25T20:44:56.175Z,14.80
2019-04-25T20:47:27.644Z,14.70
2019-04-25T20:49:58.745Z,14.60
2019-04-25T20:52:29.550Z,14.50
2019-04-25T20:54:59.977Z,14.40
2019-04-25T20:57:30.956Z,14.30
2019-04-25T21:00:01.491Z,14.20
2019-04-25T21:02:32.094Z,14.00
2019-04-25T21:05:03.165Z,14.00
2019-04-25T21:07:33.654Z,13.90
2019-04-25T21:10:04.450Z,13.80
2019-04-25T21:12:35.029Z,13.80
2019-04-25T21:15:28.156Z,13.80
2019-04-25T21:18:02.863Z,13.70
2019-04-25T21:20:33.310Z,13.60
2019-04-25T21:23:03.967Z,13.50
2019-04-25T21:25:34.829Z,13.50
2019-04-25T21:28:05.420Z,13.40
2019-04-25T21:30:36.300Z,13.40
2019-04-25T21:33:07.062Z,13.30
2019-04-25T21:35:37.928Z,13.30
2019-04-25T21:38:08.544Z,13.30
2019-04-25T21:40:51.699Z,13.30
2019-04-25T21:43:26.583Z,13.30
2019-04-25T21:45:58.042Z,13.20
2019-04-25T21:48:29.023Z,13.20
2019-04-25T21:51:02.068Z,13.20
2019-04-25T21:53:32.596Z,13.10
2019-04-25T21:56:03.953Z,13.10
2019-04-25T21:58:34.609Z,13.10
2019-04-25T22:01:13.262Z,13.00
2019-04-25T22:03:43.751Z,13.00
2019-04-25T22:06:14.707Z,13.00
2019-04-25T22:08:45.189Z,12.90
2019-04-25T22:11:15.851Z,13.00
2019-04-25T22:13:46.774Z,12.90
2019-04-25T22:16:17.727Z,12.90
2019-04-25T22:18:48.866Z,12.90
2019-04-25T22:21:19.719Z,12.80
2019-04-25T22:24:03.092Z,12.70
2019-04-25T22:26:23.261Z,12.70
2019-04-25T22:28:54.168Z,12.70
2019-04-25T22:31:30.076Z,12.70
2019-04-25T22:34:22.880Z,12.70
2019-04-25T22:36:53.753Z,12.60
2019-04-25T22:39:24.349Z,12.50
2019-04-25T22:41:55.150Z,12.50
2019-04-25T22:44:26.459Z,12.50
2019-04-25T22:46:57.534Z,12.40
2019-04-25T22:49:28.301Z,12.40
2019-04-25T22:51:58.917Z,12.30
2019-04-25T22:54:30.371Z,12.30
2019-04-25T22:57:02.527Z,12.30
2019-04-25T22:59:33.492Z,12.30
2019-04-25T23:02:26.176Z,12.20
2019-04-25T23:05:24.886Z,12.20
2019-04-25T23:07:55.617Z,12.10
2019-04-25T23:10:26.487Z,12.00
2019-04-25T23:12:57.419Z,11.90
2019-04-25T23:15:27.986Z,11.90
2019-04-25T23:17:58.986Z,11.90
2019-04-25T23:20:29.574Z,11.80
2019-04-25T23:23:00.121Z,11.70
2019-04-25T23:25:37.086Z,11.70
2019-04-25T23:28:15.665Z,11.70
2019-04-25T23:31:13.014Z,11.70
2019-04-25T23:33:43.578Z,11.70
2019-04-25T23:36:15.390Z,11.60
2019-04-25T23:38:46.140Z,11.50
2019-04-25T23:41:17.019Z,11.50
2019-04-25T23:43:47.618Z,11.40
2019-04-25T23:46:18.118Z,11.40
2019-04-25T23:48:48.752Z,11.30
2019-04-25T23:51:19.342Z,11.30
2019-04-25T23:53:50.146Z,11.20
2019-04-25T23:56:20.713Z,11.20
2019-04-25T23:58:51.581Z,11.10
